createdAt,value
2023-05-19T00:00:34.469Z,3.80
2023-05-19T00:03:03.321Z,4.30
2023-05-19T00:05:31.985Z,3.90
2023-05-19T00:08:01.183Z,4.20
2023-05-19T00:10:31.786Z,3.30
2023-05-19T00:13:02.258Z,4.47
2023-05-19T00:15:30.942Z,4.63
2023-05-19T00:17:59.366Z,3.60
2023-05-19T00:20:27.353Z,3.93
2023-05-19T00:22:55.516Z,4.23
2023-05-19T00:25:23.669Z,3.90
2023-05-19T00:27:51.671Z,4.33
2023-05-19T00:30:22.842Z,3.10
2023-05-19T00:32:50.970Z,4.27
2023-05-19T00:35:19.056Z,3.60
2023-05-19T00:37:47.104Z,3.90
2023-05-19T00:40:15.272Z,3.27
2023-05-19T00:42:43.538Z,3.47
2023-05-19T00:45:11.893Z,3.17
2023-05-19T00:47:41.277Z,3.57
2023-05-19T00:50:09.972Z,3.20
2023-05-19T00:52:38.026Z,2.90
2023-05-19T00:55:08.120Z,3.80
2023-05-19T00:57:36.323Z,3.40
2023-05-19T01:00:05.727Z,2.90
2023-05-19T01:02:33.955Z,2.90
2023-05-19T01:05:03.821Z,3.70
2023-05-19T01:07:31.905Z,3.30
2023-05-19T01:09:59.966Z,3.80
2023-05-19T01:12:28.489Z,3.83
2023-05-19T01:14:57.146Z,3.50
2023-05-19T01:17:29.617Z,3.50
2023-05-19T01:20:11.031Z,3.23
2023-05-19T01:23:01.852Z,3.17
2023-05-19T01:26:01.913Z,2.90
2023-05-19T01:28:54.176Z,4.00
2023-05-19T01:31:24.874Z,3.57
2023-05-19T01:33:54.607Z,3.70
2023-05-19T01:36:24.172Z,3.70
2023-05-19T01:38:54.992Z,3.40
2023-05-19T01:41:24.051Z,3.37
2023-05-19T01:43:54.219Z,3.50
2023-05-19T01:46:24.241Z,2.90
2023-05-19T01:48:53.512Z,3.10
2023-05-19T01:51:21.513Z,3.40
2023-05-19T01:53:49.490Z,3.33
2023-05-19T01:56:25.114Z,3.50
2023-05-19T01:59:00.156Z,3.70
2023-05-19T02:01:35.151Z,3.00
2023-05-19T02:04:19.214Z,3.37
2023-05-19T02:06:56.156Z,3.20
2023-05-19T02:09:35.989Z,3.00
2023-05-19T02:12:12.115Z,3.10
2023-05-19T02:15:04.496Z,3.97
2023-05-19T02:17:37.169Z,3.70
2023-05-19T02:20:06.764Z,3.37
2023-05-19T02:22:34.822Z,3.40
2023-05-19T02:25:02.925Z,3.07
2023-05-19T02:27:30.978Z,3.80
2023-05-19T02:29:59.047Z,3.90
2023-05-19T02:32:27.076Z,3.87
2023-05-19T02:34:56.576Z,3.40
2023-05-19T02:37:25.256Z,3.30
2023-05-19T02:39:53.213Z,3.30
2023-05-19T02:42:21.256Z,3.23
2023-05-19T02:44:49.863Z,3.87
2023-05-19T02:47:17.878Z,3.30
2023-05-19T02:49:45.929Z,3.93
2023-05-19T02:52:15.347Z,3.50
2023-05-19T02:54:43.427Z,4.27
2023-05-19T02:57:12.106Z,3.97
2023-05-19T02:59:40.101Z,3.90
2023-05-19T03:02:08.182Z,3.43
2023-05-19T03:04:42.849Z,3.20
2023-05-19T03:07:13.259Z,3.17
2023-05-19T03:09:42.684Z,3.67
2023-05-19T03:12:10.690Z,3.77
2023-05-19T03:14:39.078Z,3.60
2023-05-19T03:17:08.615Z,3.93
2023-05-19T03:19:36.706Z,3.07
2023-05-19T03:22:05.011Z,3.10
2023-05-19T03:24:33.062Z,2.97
2023-05-19T03:27:02.519Z,3.53
2023-05-19T03:29:31.001Z,3.40
2023-05-19T03:31:59.770Z,3.80
2023-05-19T03:34:27.842Z,3.90
2023-05-19T03:36:55.835Z,3.40
2023-05-19T03:39:23.805Z,3.70
2023-05-19T03:41:51.798Z,3.90
2023-05-19T03:44:21.112Z,4.10
2023-05-19T03:46:49.113Z,3.63
2023-05-19T03:49:17.244Z,3.80
2023-05-19T03:51:46.173Z,3.97
2023-05-19T03:54:14.157Z,3.70
2023-05-19T03:56:44.692Z,3.87
2023-05-19T03:59:12.915Z,4.00
2023-05-19T04:01:42.338Z,4.17
2023-05-19T04:04:10.369Z,3.30
2023-05-19T04:06:38.380Z,2.93
2023-05-19T04:09:13.040Z,3.80
2023-05-19T04:11:41.224Z,4.20
2023-05-19T04:14:09.554Z,4.60
2023-05-19T04:16:37.712Z,4.23
2023-05-19T04:19:07.083Z,4.40
2023-05-19T04:21:36.182Z,4.30
2023-05-19T04:24:06.359Z,3.83
2023-05-19T04:26:34.597Z,4.10
2023-05-19T04:29:04.918Z,3.83
2023-05-19T04:31:34.444Z,3.50
2023-05-19T04:34:02.819Z,4.63
2023-05-19T04:36:34.032Z,3.53
2023-05-19T04:39:07.312Z,3.00
2023-05-19T04:41:35.374Z,3.93
2023-05-19T04:44:03.907Z,3.83
2023-05-19T04:46:32.250Z,3.63
2023-05-19T04:49:01.215Z,3.23
2023-05-19T04:51:31.448Z,3.90
2023-05-19T04:54:01.501Z,3.33
2023-05-19T04:56:30.089Z,3.00
2023-05-19T04:58:58.170Z,3.83
2023-05-19T05:01:26.556Z,3.90
2023-05-19T05:03:56.160Z,3.40
2023-05-19T05:06:24.212Z,2.90
2023-05-19T05:08:52.608Z,3.33
2023-05-19T05:11:22.595Z,3.73
2023-05-19T05:13:51.055Z,3.10
2023-05-19T05:16:19.559Z,3.73
2023-05-19T05:18:48.108Z,3.27
2023-05-19T05:21:16.717Z,3.50
2023-05-19T05:23:45.234Z,3.70
2023-05-19T05:26:19.594Z,3.47
2023-05-19T05:28:48.951Z,3.00
2023-05-19T05:31:17.260Z,3.37
2023-05-19T05:33:45.639Z,2.73
2023-05-19T05:36:13.705Z,3.43
2023-05-19T05:38:41.687Z,3.00
2023-05-19T05:41:09.697Z,3.80
2023-05-19T05:43:37.688Z,3.87
2023-05-19T05:46:07.393Z,2.80
2023-05-19T05:48:36.272Z,3.13
2023-05-19T05:51:04.822Z,3.13
2023-05-19T05:53:38.000Z,3.20
2023-05-19T05:56:06.713Z,3.57
2023-05-19T05:58:37.330Z,3.30
2023-05-19T06:01:10.331Z,2.73
2023-05-19T06:03:39.766Z,2.70
2023-05-19T06:06:08.086Z,2.67
2023-05-19T06:08:36.368Z,3.13
2023-05-19T06:11:08.394Z,3.10
2023-05-19T06:13:36.932Z,2.67
2023-05-19T06:16:07.068Z,3.67
2023-05-19T06:18:35.073Z,3.17
2023-05-19T06:21:03.298Z,3.93
2023-05-19T06:23:31.793Z,3.40
2023-05-19T06:25:59.787Z,3.50
2023-05-19T06:28:27.781Z,3.13
2023-05-19T06:30:55.808Z,3.57
2023-05-19T06:33:28.140Z,3.33
2023-05-19T06:35:57.050Z,3.07
2023-05-19T06:38:25.064Z,2.93
2023-05-19T06:40:53.018Z,3.10
2023-05-19T06:43:21.260Z,3.40
2023-05-19T06:45:49.259Z,3.67
2023-05-19T06:48:17.312Z,4.03
2023-05-19T06:50:46.677Z,4.40
2023-05-19T06:53:14.683Z,3.47
2023-05-19T06:55:54.808Z,4.00
2023-05-19T06:58:27.810Z,4.10
2023-05-19T07:00:55.871Z,3.60
2023-05-19T07:03:23.959Z,3.87
2023-05-19T07:05:53.510Z,3.80
2023-05-19T07:08:21.440Z,3.90
2023-05-19T07:10:49.453Z,4.20
2023-05-19T07:13:17.516Z,4.40
2023-05-19T07:15:45.652Z,4.13
2023-05-19T07:18:13.652Z,3.90
2023-05-19T07:20:41.748Z,3.93
2023-05-19T07:23:11.079Z,3.97
2023-05-19T07:25:39.170Z,3.50
2023-05-19T07:28:07.124Z,4.00
2023-05-19T07:30:35.151Z,3.83
2023-05-19T07:33:03.592Z,4.20
2023-05-19T07:35:31.715Z,4.20
2023-05-19T07:37:59.739Z,3.83
2023-05-19T07:40:29.050Z,4.13
2023-05-19T07:42:57.024Z,4.40
2023-05-19T07:45:24.998Z,4.50
2023-05-19T07:47:54.032Z,4.40
2023-05-19T07:50:22.313Z,5.00
2023-05-19T07:52:50.432Z,4.40
2023-05-19T07:55:19.196Z,4.47
2023-05-19T07:57:48.573Z,4.33
2023-05-19T08:00:17.743Z,4.10
2023-05-19T08:02:46.241Z,4.70
2023-05-19T08:05:14.313Z,4.90
2023-05-19T08:07:42.371Z,4.03
2023-05-19T08:10:10.600Z,4.43
2023-05-19T08:12:38.682Z,4.67
2023-05-19T08:15:11.709Z,4.93
2023-05-19T08:17:39.759Z,4.60
2023-05-19T08:20:10.200Z,5.00
2023-05-19T08:22:38.278Z,4.20
2023-05-19T08:25:07.436Z,5.20
2023-05-19T08:27:35.581Z,4.80
2023-05-19T08:30:03.613Z,4.87
2023-05-19T08:32:32.922Z,4.73
2023-05-19T08:35:00.945Z,5.03
2023-05-19T08:37:28.982Z,4.83
2023-05-19T08:39:57.187Z,5.00
2023-05-19T08:42:25.140Z,4.83
2023-05-19T08:44:53.168Z,4.40
2023-05-19T08:47:21.200Z,4.90
2023-05-19T08:49:54.320Z,4.50
2023-05-19T08:52:31.494Z,4.30
2023-05-19T08:55:05.004Z,4.20
2023-05-19T08:57:34.156Z,4.60
2023-05-19T09:00:06.130Z,4.50
2023-05-19T09:02:34.689Z,4.23
2023-05-19T09:05:04.875Z,4.07
2023-05-19T09:07:34.798Z,3.50
2023-05-19T09:10:03.732Z,4.40
2023-05-19T09:12:31.903Z,4.10
2023-05-19T09:15:04.650Z,4.10
2023-05-19T09:17:32.843Z,3.93
2023-05-19T09:20:06.772Z,3.87
2023-05-19T09:22:36.631Z,3.70
2023-05-19T09:25:04.804Z,2.87
2023-05-19T09:27:33.712Z,3.67
2023-05-19T09:30:10.384Z,3.13
2023-05-19T09:32:38.501Z,3.30
2023-05-19T09:35:09.275Z,3.43
2023-05-19T09:37:40.053Z,3.50
2023-05-19T09:40:11.371Z,3.77
2023-05-19T09:42:43.028Z,4.07
2023-05-19T09:45:11.491Z,3.80
2023-05-19T09:47:41.373Z,3.73
2023-05-19T09:50:12.640Z,3.20
2023-05-19T09:52:43.597Z,3.60
2023-05-19T09:55:13.317Z,3.60
2023-05-19T09:57:42.021Z,3.87
2023-05-19T10:00:15.397Z,3.67
2023-05-19T10:02:47.672Z,4.47
2023-05-19T10:05:20.253Z,4.20
2023-05-19T10:07:51.522Z,4.20
2023-05-19T10:10:20.949Z,4.70
2023-05-19T10:12:49.424Z,3.60
2023-05-19T10:15:20.558Z,3.87
2023-05-19T10:17:51.609Z,3.70
2023-05-19T10:20:21.086Z,3.90
2023-05-19T10:22:49.598Z,4.10
2023-05-19T10:25:19.822Z,4.13
2023-05-19T10:27:54.873Z,3.63
2023-05-19T10:30:29.697Z,3.37
2023-05-19T10:32:58.347Z,3.97
2023-05-19T10:35:45.155Z,4.07
2023-05-19T10:38:22.966Z,3.87
2023-05-19T10:41:02.035Z,4.00
2023-05-19T10:43:48.075Z,4.10
2023-05-19T10:46:16.349Z,3.60
2023-05-19T10:48:46.838Z,3.23
2023-05-19T10:51:17.384Z,3.80
2023-05-19T10:53:50.114Z,3.93
2023-05-19T10:56:33.715Z,3.43
2023-05-19T10:59:02.251Z,3.87
2023-05-19T11:01:33.509Z,3.43
2023-05-19T11:04:06.956Z,3.93
2023-05-19T11:06:38.061Z,3.47
2023-05-19T11:09:14.063Z,3.50
2023-05-19T11:11:47.768Z,4.60
2023-05-19T11:14:18.398Z,3.40
2023-05-19T11:16:48.977Z,3.50
2023-05-19T11:19:21.391Z,3.40
2023-05-19T11:21:52.423Z,3.23
2023-05-19T11:24:36.950Z,3.50
2023-05-19T11:27:28.130Z,3.90
2023-05-19T11:29:57.181Z,3.23
2023-05-19T11:32:28.469Z,3.80
2023-05-19T11:34:57.637Z,3.30
2023-05-19T11:37:28.702Z,4.00
2023-05-19T11:39:56.770Z,3.97
2023-05-19T11:42:25.094Z,4.17
2023-05-19T11:44:59.252Z,3.20
2023-05-19T11:47:28.175Z,4.77
2023-05-19T11:50:10.761Z,4.00
2023-05-19T11:52:45.673Z,3.63
2023-05-19T11:55:16.941Z,4.10
2023-05-19T11:58:02.950Z,4.20
2023-05-19T12:00:37.109Z,4.27
2023-05-19T12:03:06.066Z,3.93
2023-05-19T12:05:40.844Z,4.50
2023-05-19T12:08:11.702Z,3.90
2023-05-19T12:10:40.694Z,3.47
2023-05-19T12:13:10.140Z,3.00
2023-05-19T12:15:39.533Z,3.80
2023-05-19T12:18:08.445Z,4.30
2023-05-19T12:20:37.201Z,4.63
2023-05-19T12:23:05.727Z,3.80
2023-05-19T12:25:35.385Z,3.93
2023-05-19T12:28:04.491Z,3.50
2023-05-19T12:30:34.206Z,4.07
2023-05-19T12:33:04.053Z,4.77
2023-05-19T12:35:33.945Z,4.03
2023-05-19T12:38:05.213Z,3.77
2023-05-19T12:40:36.801Z,4.10
2023-05-19T12:43:05.498Z,4.13
2023-05-19T12:45:36.014Z,5.07
2023-05-19T12:48:05.808Z,4.50
2023-05-19T12:50:35.301Z,4.33
2023-05-19T12:53:03.498Z,4.77
2023-05-19T12:55:31.731Z,4.47
2023-05-19T12:58:06.633Z,4.20
2023-05-19T13:00:36.115Z,4.20
2023-05-19T13:03:06.691Z,4.50
2023-05-19T13:05:36.781Z,3.67
2023-05-19T13:08:08.659Z,3.60
2023-05-19T13:10:38.334Z,4.53
2023-05-19T13:13:09.279Z,4.53
2023-05-19T13:15:39.822Z,4.17
2023-05-19T13:18:09.607Z,4.70
2023-05-19T13:20:38.147Z,4.10
2023-05-19T13:23:06.752Z,4.80
2023-05-19T13:25:35.500Z,4.47
2023-05-19T13:28:05.835Z,4.60
2023-05-19T13:30:36.826Z,5.80
2023-05-19T13:33:05.379Z,4.90
2023-05-19T13:35:37.000Z,5.00
2023-05-19T13:38:05.756Z,5.00
2023-05-19T13:40:34.736Z,4.43
2023-05-19T13:43:03.282Z,5.00
2023-05-19T13:45:45.329Z,5.40
2023-05-19T13:48:13.391Z,4.47
2023-05-19T13:50:41.391Z,5.03
2023-05-19T13:53:11.503Z,5.00
2023-05-19T13:55:39.536Z,5.43
2023-05-19T13:58:07.713Z,5.50
2023-05-19T14:00:36.811Z,6.40
2023-05-19T14:03:06.935Z,5.43
2023-05-19T14:05:35.562Z,4.97
2023-05-19T14:08:05.082Z,4.60
2023-05-19T14:10:33.243Z,5.23
2023-05-19T14:15:34.524Z,4.83
2023-05-19T14:18:03.618Z,5.50
2023-05-19T14:20:34.315Z,5.67
2023-05-19T14:23:02.961Z,5.10
2023-05-19T14:25:30.894Z,4.20
2023-05-19T14:27:58.866Z,4.20
2023-05-19T14:30:26.869Z,4.20
2023-05-19T14:32:54.863Z,4.43
2023-05-19T14:35:23.566Z,4.27
2023-05-19T14:37:53.220Z,4.50
2023-05-19T14:40:21.175Z,4.70
2023-05-19T14:42:49.120Z,4.03
2023-05-19T14:45:17.160Z,4.30
2023-05-19T14:47:45.841Z,4.30
2023-05-19T14:50:14.943Z,3.93
2023-05-19T14:52:42.934Z,5.30
2023-05-19T14:55:12.362Z,4.57
2023-05-19T14:57:40.327Z,4.90
2023-05-19T15:00:10.273Z,4.60
2023-05-19T15:02:38.373Z,4.60
2023-05-19T15:05:07.001Z,5.23
2023-05-19T15:07:34.996Z,4.30
2023-05-19T15:10:03.090Z,4.40
2023-05-19T15:12:32.423Z,4.10
2023-05-19T15:15:00.979Z,4.07
2023-05-19T15:17:28.978Z,4.77
2023-05-19T15:19:56.987Z,4.50
2023-05-19T15:22:24.980Z,4.10
2023-05-19T15:24:52.985Z,4.50
2023-05-19T15:27:21.202Z,4.20
2023-05-19T15:29:50.578Z,4.77
2023-05-19T15:32:18.554Z,4.60
2023-05-19T15:34:47.517Z,4.03
2023-05-19T15:37:15.497Z,3.93
2023-05-19T15:39:43.673Z,4.57
2023-05-19T15:42:11.681Z,4.90
2023-05-19T15:44:39.634Z,5.40
2023-05-19T15:47:08.948Z,4.50
2023-05-19T15:49:36.907Z,4.23
2023-05-19T15:52:05.354Z,4.97
2023-05-19T15:54:33.339Z,4.10
2023-05-19T15:57:01.289Z,4.77
2023-05-19T15:59:29.249Z,4.33
2023-05-19T16:01:57.266Z,4.03
2023-05-19T16:04:26.592Z,4.20
2023-05-19T16:06:54.527Z,3.83
2023-05-19T16:09:22.524Z,4.27
2023-05-19T16:11:50.514Z,4.47
2023-05-19T16:14:18.507Z,4.13
2023-05-19T16:16:46.491Z,4.20
2023-05-19T16:19:14.537Z,4.80
2023-05-19T16:21:43.897Z,4.33
2023-05-19T16:24:11.839Z,4.57
2023-05-19T16:26:39.787Z,4.20
2023-05-19T16:29:07.738Z,4.77
2023-05-19T16:31:35.695Z,4.17
2023-05-19T16:34:03.736Z,4.30
2023-05-19T16:36:31.806Z,4.50
2023-05-19T16:39:01.139Z,4.40
2023-05-19T16:41:29.132Z,4.80
2023-05-19T16:43:57.083Z,4.30
2023-05-19T16:46:25.161Z,4.67
2023-05-19T16:48:53.170Z,4.10
2023-05-19T16:51:21.250Z,4.30
2023-05-19T16:53:49.188Z,4.37
2023-05-19T16:56:18.519Z,4.87
2023-05-19T16:58:46.530Z,3.77
2023-05-19T17:01:14.508Z,4.03
2023-05-19T17:03:42.501Z,4.53
2023-05-19T17:06:10.493Z,4.60
2023-05-19T17:08:38.460Z,3.63
2023-05-19T17:11:07.251Z,3.90
2023-05-19T17:13:37.123Z,3.63
2023-05-19T17:16:05.246Z,3.77
2023-05-19T17:18:33.221Z,3.93
2023-05-19T17:21:03.556Z,3.33
2023-05-19T17:23:32.196Z,4.20
2023-05-19T17:26:00.192Z,4.40
2023-05-19T17:28:28.270Z,3.87
2023-05-19T17:30:57.566Z,4.20
2023-05-19T17:33:25.646Z,4.30
2023-05-19T17:35:53.681Z,3.67
2023-05-19T17:38:21.681Z,3.70
2023-05-19T17:40:49.624Z,3.60
2023-05-19T17:43:17.570Z,3.60
2023-05-19T17:45:45.863Z,3.40
2023-05-19T17:48:15.196Z,3.97
2023-05-19T17:50:43.184Z,4.67
2023-05-19T17:53:11.384Z,3.60
2023-05-19T17:55:39.912Z,3.80
2023-05-19T17:58:08.530Z,3.70
2023-05-19T18:00:37.073Z,3.67
2023-05-19T18:03:06.314Z,3.47
2023-05-19T18:05:37.411Z,3.90
2023-05-19T18:08:09.131Z,3.77
2023-05-19T18:10:38.592Z,3.43
2023-05-19T18:13:06.925Z,3.40
2023-05-19T18:15:34.983Z,3.50
2023-05-19T18:18:05.544Z,4.03
2023-05-19T18:20:35.210Z,3.30
2023-05-19T18:23:03.318Z,3.73
2023-05-19T18:25:31.335Z,4.70
2023-05-19T18:27:59.319Z,5.57
2023-05-19T18:30:27.285Z,5.07
2023-05-19T18:32:55.408Z,5.17
2023-05-19T18:35:23.438Z,4.77
2023-05-19T18:37:56.258Z,5.27
2023-05-19T18:40:24.605Z,17.83
2023-05-19T18:42:52.586Z,7.53
2023-05-19T18:45:20.542Z,8.87
2023-05-19T18:47:48.811Z,5.70
2023-05-19T18:50:16.983Z,5.57
2023-05-19T18:52:44.932Z,4.53
2023-05-19T18:55:14.234Z,5.17
2023-05-19T18:57:42.194Z,4.70
2023-05-19T19:00:13.569Z,6.10
2023-05-19T19:02:41.620Z,9.80
2023-05-19T19:05:10.295Z,7.50
2023-05-19T19:07:41.086Z,5.70
2023-05-19T19:10:10.135Z,4.97
2023-05-19T19:12:39.805Z,4.80
2023-05-19T19:15:08.646Z,5.10
2023-05-19T19:17:36.910Z,4.70
2023-05-19T19:20:05.352Z,4.77
2023-05-19T19:22:33.370Z,4.73
2023-05-19T19:25:01.360Z,5.20
2023-05-19T19:27:31.042Z,5.30
2023-05-19T19:30:00.725Z,5.30
2023-05-19T19:32:28.823Z,5.00
2023-05-19T19:34:56.839Z,6.03
2023-05-19T19:37:24.855Z,5.43
2023-05-19T19:39:52.852Z,5.97
2023-05-19T19:42:20.795Z,6.07
2023-05-19T19:44:48.744Z,5.60
2023-05-19T19:47:18.040Z,7.60
2023-05-19T19:49:46.065Z,6.13
2023-05-19T19:52:14.076Z,7.10
2023-05-19T19:54:42.119Z,6.27
2023-05-19T19:57:10.122Z,6.97
2023-05-19T19:59:38.068Z,5.83
2023-05-19T20:02:06.242Z,6.43
2023-05-19T20:04:35.713Z,6.70
2023-05-19T20:07:03.765Z,6.20
2023-05-19T20:09:31.752Z,5.17
2023-05-19T20:11:59.718Z,6.83
2023-05-19T20:14:27.736Z,5.30
2023-05-19T20:16:55.731Z,6.03
2023-05-19T20:19:25.446Z,5.07
2023-05-19T20:21:54.755Z,4.90
2023-05-19T20:24:22.765Z,5.07
2023-05-19T20:26:50.803Z,4.67
2023-05-19T20:29:18.783Z,6.10
2023-05-19T20:31:46.715Z,6.50
2023-05-19T20:34:15.170Z,6.97
2023-05-19T20:36:43.178Z,6.27
2023-05-19T20:39:12.511Z,5.40
2023-05-19T20:41:40.573Z,5.80
2023-05-19T20:44:10.244Z,5.70
2023-05-19T20:46:38.308Z,5.53
2023-05-19T20:49:06.370Z,6.47
2023-05-19T20:51:34.404Z,5.40
2023-05-19T20:54:02.384Z,5.77
2023-05-19T20:56:31.687Z,6.10
2023-05-19T20:58:59.694Z,5.10
2023-05-19T21:01:29.801Z,6.13
2023-05-19T21:03:57.896Z,5.87
2023-05-19T21:06:25.942Z,5.93
2023-05-19T21:08:53.896Z,6.33
2023-05-19T21:11:21.867Z,6.70
2023-05-19T21:13:51.258Z,5.93
2023-05-19T21:16:19.290Z,5.50
2023-05-19T21:18:47.298Z,6.27
2023-05-19T21:21:15.483Z,6.47
2023-05-19T21:23:43.446Z,6.90
2023-05-19T21:26:11.439Z,5.97
2023-05-19T21:28:39.417Z,6.27
2023-05-19T21:31:08.834Z,6.77
2023-05-19T21:33:36.879Z,6.13
2023-05-19T21:36:05.089Z,6.60
2023-05-19T21:38:33.070Z,6.10
2023-05-19T21:41:01.062Z,5.73
2023-05-19T21:43:29.035Z,6.03
2023-05-19T21:45:57.088Z,5.93
2023-05-19T21:48:26.487Z,6.40
2023-05-19T21:50:56.699Z,6.83
2023-05-19T21:53:24.943Z,6.33
2023-05-19T21:55:53.065Z,6.37
2023-05-19T21:58:21.202Z,6.87
2023-05-19T22:00:50.698Z,6.43
2023-05-19T22:03:19.365Z,7.23
2023-05-19T22:05:51.844Z,6.37
2023-05-19T22:08:22.182Z,6.60
2023-05-19T22:10:51.084Z,6.73
2023-05-19T22:13:19.246Z,6.67
2023-05-19T22:15:47.504Z,6.17
2023-05-19T22:18:15.657Z,6.33
2023-05-19T22:20:43.819Z,6.40
2023-05-19T22:23:13.130Z,6.57
2023-05-19T22:25:41.519Z,6.43
2023-05-19T22:28:09.538Z,6.20
2023-05-19T22:30:41.054Z,6.93
2023-05-19T22:33:09.760Z,6.00
2023-05-19T22:35:37.911Z,6.90
2023-05-19T22:38:07.541Z,7.40
2023-05-19T22:40:38.976Z,7.43
2023-05-19T22:43:07.024Z,6.63
2023-05-19T22:45:36.688Z,6.40
2023-05-19T22:48:05.396Z,7.10
2023-05-19T22:50:33.504Z,6.30
2023-05-19T22:53:01.503Z,7.60
2023-05-19T22:55:29.485Z,6.50
2023-05-19T22:57:58.987Z,7.03
2023-05-19T23:00:26.967Z,7.20
2023-05-19T23:02:55.017Z,7.00
2023-05-19T23:05:23.001Z,6.20
2023-05-19T23:07:50.959Z,5.97
2023-05-19T23:10:19.089Z,6.07
2023-05-19T23:12:47.150Z,5.50
2023-05-19T23:15:16.452Z,5.70
2023-05-19T23:17:44.437Z,5.67
2023-05-19T23:20:14.187Z,6.13
2023-05-19T23:22:42.144Z,6.00
2023-05-19T23:25:10.474Z,6.40
2023-05-19T23:27:38.558Z,5.93
2023-05-19T23:30:08.068Z,6.43
2023-05-19T23:32:37.387Z,5.90
2023-05-19T23:35:13.049Z,5.00
2023-05-19T23:37:41.159Z,6.33
2023-05-19T23:40:09.899Z,5.57
2023-05-19T23:42:38.264Z,5.83
2023-05-19T23:45:07.237Z,5.53
2023-05-19T23:47:35.223Z,6.20
2023-05-19T23:50:04.917Z,6.47
2023-05-19T23:52:32.898Z,6.47
2023-05-19T23:55:00.972Z,6.17
2023-05-19T23:57:28.934Z,6.90
2023-05-19T23:59:56.877Z,6.70
